createdAt,value
2023-05-29T00:02:02.847Z,99.90
2023-05-29T00:04:30.564Z,99.90
2023-05-29T00:06:58.188Z,99.90
2023-05-29T00:09:26.456Z,99.90
2023-05-29T00:11:54.283Z,99.90
2023-05-29T00:14:23.615Z,99.90
2023-05-29T00:16:52.448Z,99.90
2023-05-29T00:19:20.852Z,99.90
2023-05-29T00:21:49.291Z,99.90
2023-05-29T00:24:18.229Z,99.90
2023-05-29T00:26:45.893Z,99.90
2023-05-29T00:29:13.425Z,99.90
2023-05-29T00:31:41.034Z,99.90
2023-05-29T00:34:08.611Z,99.90
2023-05-29T00:36:36.356Z,99.90
2023-05-29T00:39:04.043Z,99.90
2023-05-29T00:41:31.636Z,99.90
2023-05-29T00:43:59.191Z,99.90
2023-05-29T00:46:27.497Z,99.90
2023-05-29T00:48:55.694Z,99.90
2023-05-29T00:51:23.936Z,99.90
2023-05-29T00:53:53.070Z,99.90
2023-05-29T00:56:22.408Z,99.90
2023-05-29T00:58:52.969Z,99.90
2023-05-29T01:01:22.675Z,99.90
2023-05-29T01:03:50.673Z,99.90
2023-05-29T01:06:18.258Z,99.90
2023-05-29T01:08:45.814Z,99.90
2023-05-29T01:11:37.199Z,99.90
2023-05-29T01:14:11.341Z,99.90
2023-05-29T01:17:21.398Z,99.90
2023-05-29T01:20:31.029Z,99.90
2023-05-29T01:23:49.317Z,99.90
2023-05-29T01:27:12.428Z,99.90
2023-05-29T01:29:43.912Z,99.90
2023-05-29T01:32:12.826Z,99.90
2023-05-29T01:34:40.492Z,99.90
2023-05-29T01:37:08.038Z,99.90
2023-05-29T01:39:35.972Z,99.90
2023-05-29T01:42:04.593Z,99.90
2023-05-29T01:44:32.719Z,99.90
2023-05-29T01:47:00.699Z,99.90
2023-05-29T01:49:29.432Z,99.90
2023-05-29T01:51:57.114Z,99.90
2023-05-29T01:54:24.713Z,99.90
2023-05-29T01:56:53.128Z,99.90
2023-05-29T01:59:21.743Z,99.90
2023-05-29T02:01:49.873Z,99.90
2023-05-29T02:04:17.529Z,99.90
2023-05-29T02:06:45.140Z,99.90
2023-05-29T02:09:13.166Z,99.90
2023-05-29T02:11:45.872Z,99.90
2023-05-29T02:14:14.050Z,99.90
2023-05-29T02:16:42.448Z,99.90
2023-05-29T02:19:10.390Z,99.90
2023-05-29T02:21:42.263Z,99.90
2023-05-29T02:24:09.773Z,99.90
2023-05-29T02:26:41.454Z,99.90
2023-05-29T02:29:09.533Z,99.90
2023-05-29T02:31:37.100Z,99.90
2023-05-29T02:34:04.665Z,99.90
2023-05-29T02:36:32.304Z,99.90
2023-05-29T02:38:59.874Z,99.90
2023-05-29T02:41:27.576Z,99.90
2023-05-29T02:43:55.126Z,99.90
2023-05-29T02:46:23.319Z,99.90
2023-05-29T02:48:51.021Z,99.90
2023-05-29T02:51:18.644Z,99.90
2023-05-29T02:53:46.570Z,99.90
2023-05-29T02:56:14.099Z,99.90
2023-05-29T02:58:41.647Z,99.90
2023-05-29T03:01:09.532Z,99.90
2023-05-29T03:03:37.125Z,99.90
2023-05-29T03:06:05.079Z,99.90
2023-05-29T03:08:34.848Z,99.90
2023-05-29T03:11:02.376Z,99.90
2023-05-29T03:13:29.919Z,99.90
2023-05-29T03:15:58.492Z,99.90
2023-05-29T03:18:26.021Z,99.90
2023-05-29T03:20:53.824Z,99.90
2023-05-29T03:23:21.638Z,99.90
2023-05-29T03:25:49.185Z,99.90
2023-05-29T03:28:16.823Z,99.90
2023-05-29T03:30:44.339Z,99.90
2023-05-29T03:33:11.905Z,99.90
2023-05-29T03:35:39.374Z,99.90
2023-05-29T03:38:06.939Z,99.90
2023-05-29T03:40:34.425Z,99.90
2023-05-29T03:43:01.940Z,99.90
2023-05-29T03:45:29.449Z,99.90
2023-05-29T03:47:57.110Z,99.90
2023-05-29T03:50:24.623Z,99.90
2023-05-29T03:52:52.142Z,99.90
2023-05-29T03:55:19.660Z,99.90
2023-05-29T03:57:47.172Z,99.90
2023-05-29T04:00:15.048Z,99.90
2023-05-29T04:02:42.941Z,99.90
2023-05-29T04:05:10.774Z,99.90
2023-05-29T04:07:38.513Z,99.90
2023-05-29T04:10:07.982Z,99.90
2023-05-29T04:12:35.892Z,99.90
2023-05-29T04:15:04.278Z,99.90
2023-05-29T04:17:31.843Z,99.90
2023-05-29T04:19:59.734Z,99.90
2023-05-29T04:22:27.405Z,99.90
2023-05-29T04:24:54.966Z,99.90
2023-05-29T04:27:22.500Z,99.90
2023-05-29T04:29:50.035Z,99.90
2023-05-29T04:32:18.261Z,99.90
2023-05-29T04:34:45.803Z,99.90
2023-05-29T04:37:14.831Z,99.90
2023-05-29T04:39:42.353Z,99.90
2023-05-29T04:42:10.070Z,99.90
2023-05-29T04:44:37.660Z,99.90
2023-05-29T04:47:05.532Z,99.90
2023-05-29T04:49:33.148Z,99.90
2023-05-29T04:52:01.894Z,99.90
2023-05-29T04:54:29.602Z,99.90
2023-05-29T04:56:57.131Z,99.90
2023-05-29T04:59:24.627Z,99.90
2023-05-29T05:01:52.302Z,99.90
2023-05-29T05:04:19.919Z,99.90
2023-05-29T05:06:47.672Z,99.90
2023-05-29T05:09:15.275Z,99.90
2023-05-29T05:11:42.848Z,99.90
2023-05-29T05:14:10.829Z,99.90
2023-05-29T05:16:38.339Z,99.90
2023-05-29T05:19:06.807Z,99.90
2023-05-29T05:21:34.404Z,99.90
2023-05-29T05:24:01.959Z,99.90
2023-05-29T05:26:29.548Z,99.90
2023-05-29T05:28:57.323Z,99.90
2023-05-29T05:31:26.010Z,99.90
2023-05-29T05:33:54.027Z,99.90
2023-05-29T05:36:21.736Z,99.90
2023-05-29T05:38:49.651Z,99.90
2023-05-29T05:41:17.240Z,99.90
2023-05-29T05:43:44.980Z,99.90
2023-05-29T05:46:12.652Z,99.90
2023-05-29T05:48:42.282Z,99.90
2023-05-29T05:51:09.954Z,99.90
2023-05-29T05:53:37.438Z,99.90
2023-05-29T05:56:05.331Z,99.90
2023-05-29T05:58:33.462Z,99.90
2023-05-29T06:01:02.306Z,99.90
2023-05-29T06:03:30.082Z,99.90
2023-05-29T06:05:57.754Z,99.90
2023-05-29T06:08:25.753Z,99.90
2023-05-29T06:10:53.946Z,99.90
2023-05-29T06:13:21.733Z,99.90
2023-05-29T06:15:49.329Z,99.90
2023-05-29T06:18:17.483Z,99.90
2023-05-29T06:20:45.511Z,99.90
2023-05-29T06:23:13.179Z,99.90
2023-05-29T06:25:40.735Z,99.90
2023-05-29T06:28:08.288Z,99.90
2023-05-29T06:30:35.885Z,99.90
2023-05-29T06:33:03.892Z,99.90
2023-05-29T06:35:31.465Z,99.90
2023-05-29T06:37:58.993Z,99.90
2023-05-29T06:40:26.680Z,99.90
2023-05-29T06:42:54.207Z,99.90
2023-05-29T06:45:21.872Z,99.90
2023-05-29T06:47:49.425Z,99.90
2023-05-29T06:50:17.009Z,99.90
2023-05-29T06:52:44.749Z,99.90
2023-05-29T06:55:12.413Z,99.90
2023-05-29T06:57:39.973Z,99.90
2023-05-29T07:00:09.031Z,99.90
2023-05-29T07:02:36.726Z,99.90
2023-05-29T07:05:04.938Z,99.90
2023-05-29T07:07:32.953Z,99.90
2023-05-29T07:10:00.932Z,99.90
2023-05-29T07:12:28.526Z,99.90
2023-05-29T07:14:56.069Z,99.90
2023-05-29T07:17:23.795Z,99.90
2023-05-29T07:19:51.485Z,96.40
2023-05-29T07:22:19.124Z,95.00
2023-05-29T07:24:47.253Z,95.30
2023-05-29T07:27:14.872Z,96.40
2023-05-29T07:29:42.650Z,94.80
2023-05-29T07:32:12.369Z,93.70
2023-05-29T07:34:40.104Z,94.30
2023-05-29T07:37:08.646Z,92.60
2023-05-29T07:39:37.218Z,87.40
2023-05-29T07:42:05.197Z,85.10
2023-05-29T07:44:33.579Z,88.30
2023-05-29T07:47:01.382Z,83.70
2023-05-29T07:49:29.169Z,76.90
2023-05-29T07:51:57.051Z,78.70
2023-05-29T07:54:24.722Z,78.40
2023-05-29T07:56:52.471Z,82.80
2023-05-29T07:59:20.171Z,85.80
2023-05-29T08:01:48.498Z,84.80
2023-05-29T08:04:16.417Z,79.40
2023-05-29T08:06:44.894Z,78.20
2023-05-29T08:09:12.895Z,78.10
2023-05-29T08:11:40.882Z,71.20
2023-05-29T08:14:08.409Z,77.10
2023-05-29T08:16:36.615Z,75.20
2023-05-29T08:19:05.171Z,70.40
2023-05-29T08:21:35.614Z,69.20
2023-05-29T08:24:06.306Z,72.40
2023-05-29T08:26:34.486Z,73.40
2023-05-29T08:29:02.382Z,71.40
2023-05-29T08:31:32.189Z,73.00
2023-05-29T08:33:59.734Z,70.50
2023-05-29T08:36:27.627Z,72.60
2023-05-29T08:38:55.415Z,72.60
2023-05-29T08:41:33.880Z,74.90
2023-05-29T08:44:07.433Z,74.10
2023-05-29T08:46:36.627Z,74.20
2023-05-29T08:49:04.956Z,73.50
2023-05-29T08:51:37.595Z,73.20
2023-05-29T08:54:05.510Z,71.70
2023-05-29T08:56:35.105Z,71.80
2023-05-29T08:59:06.762Z,73.40
2023-05-29T09:01:52.789Z,73.50
2023-05-29T09:04:20.429Z,71.70
2023-05-29T09:06:48.407Z,72.50
2023-05-29T09:09:16.269Z,72.50
2023-05-29T09:11:45.901Z,73.30
2023-05-29T09:14:43.995Z,72.90
2023-05-29T09:17:14.591Z,74.00
2023-05-29T09:19:42.553Z,77.00
2023-05-29T09:22:16.444Z,77.90
2023-05-29T09:24:49.871Z,76.60
2023-05-29T09:27:18.625Z,72.30
2023-05-29T09:29:47.902Z,69.90
2023-05-29T09:32:20.219Z,72.00
2023-05-29T09:34:48.118Z,72.10
2023-05-29T09:37:17.025Z,68.90
2023-05-29T09:39:50.159Z,75.10
2023-05-29T09:42:18.215Z,71.00
2023-05-29T09:44:53.457Z,70.80
2023-05-29T09:47:21.465Z,71.80
2023-05-29T09:49:49.167Z,69.00
2023-05-29T09:52:22.648Z,69.70
2023-05-29T09:54:52.146Z,69.10
2023-05-29T09:57:19.897Z,68.70
2023-05-29T09:59:52.716Z,68.90
2023-05-29T10:02:20.664Z,69.60
2023-05-29T10:04:51.382Z,69.00
2023-05-29T10:07:36.711Z,68.40
2023-05-29T10:10:10.540Z,65.50
2023-05-29T10:12:40.213Z,63.30
2023-05-29T10:15:15.776Z,63.30
2023-05-29T10:17:57.300Z,65.80
2023-05-29T10:20:25.162Z,63.70
2023-05-29T10:22:57.568Z,64.70
2023-05-29T10:25:28.816Z,67.10
2023-05-29T10:27:58.483Z,64.10
2023-05-29T10:30:31.370Z,64.30
2023-05-29T10:33:55.365Z,66.00
2023-05-29T10:36:27.803Z,59.20
2023-05-29T10:38:55.421Z,61.00
2023-05-29T10:41:33.008Z,62.00
2023-05-29T10:44:04.471Z,61.90
2023-05-29T10:46:44.762Z,60.20
2023-05-29T10:49:20.055Z,59.60
2023-05-29T10:51:52.311Z,58.40
2023-05-29T10:54:27.897Z,58.50
2023-05-29T10:57:02.482Z,59.60
2023-05-29T10:59:30.706Z,58.90
2023-05-29T11:01:59.400Z,56.70
2023-05-29T11:04:28.492Z,59.30
2023-05-29T11:06:56.505Z,53.90
2023-05-29T11:09:41.136Z,55.40
2023-05-29T11:12:37.379Z,54.20
2023-05-29T11:15:07.560Z,54.10
2023-05-29T11:17:46.842Z,54.20
2023-05-29T11:20:34.650Z,55.00
2023-05-29T11:23:09.606Z,53.90
2023-05-29T11:25:38.880Z,54.80
2023-05-29T11:28:11.919Z,54.50
2023-05-29T11:31:02.078Z,52.10
2023-05-29T11:33:29.999Z,53.70
2023-05-29T11:36:02.307Z,53.40
2023-05-29T11:38:30.780Z,53.00
2023-05-29T11:41:01.738Z,52.40
2023-05-29T11:43:29.365Z,51.90
2023-05-29T11:46:00.564Z,51.90
2023-05-29T11:48:28.402Z,51.50
2023-05-29T11:50:56.011Z,51.80
2023-05-29T11:53:24.399Z,50.50
2023-05-29T11:55:52.924Z,52.60
2023-05-29T11:58:22.962Z,51.60
2023-05-29T12:00:52.076Z,50.20
2023-05-29T12:03:19.911Z,49.90
2023-05-29T12:05:54.032Z,51.70
2023-05-29T12:08:26.767Z,50.00
2023-05-29T12:10:54.852Z,49.90
2023-05-29T12:13:23.264Z,47.80
2023-05-29T12:15:58.124Z,48.60
2023-05-29T12:18:27.169Z,49.70
2023-05-29T12:21:05.491Z,51.00
2023-05-29T12:23:33.223Z,49.60
2023-05-29T12:26:01.152Z,50.00
2023-05-29T12:28:28.761Z,49.00
2023-05-29T12:31:01.264Z,48.80
2023-05-29T12:33:35.260Z,47.50
2023-05-29T12:36:08.806Z,48.80
2023-05-29T12:38:59.257Z,47.90
2023-05-29T12:41:35.485Z,49.50
2023-05-29T12:44:07.050Z,49.40
2023-05-29T12:46:46.300Z,47.80
2023-05-29T12:49:20.687Z,49.90
2023-05-29T12:51:49.243Z,49.40
2023-05-29T12:54:18.347Z,46.40
2023-05-29T12:56:47.608Z,49.20
2023-05-29T12:59:16.801Z,50.70
2023-05-29T13:01:44.805Z,48.90
2023-05-29T13:04:13.969Z,48.50
2023-05-29T13:06:41.930Z,46.70
2023-05-29T13:09:10.048Z,47.10
2023-05-29T13:11:38.643Z,47.50
2023-05-29T13:14:06.571Z,47.90
2023-05-29T13:16:34.740Z,48.60
2023-05-29T13:19:02.339Z,48.80
2023-05-29T13:21:29.900Z,49.00
2023-05-29T13:23:57.585Z,49.20
2023-05-29T13:26:25.262Z,48.70
2023-05-29T13:28:53.158Z,47.90
2023-05-29T13:31:22.372Z,45.60
2023-05-29T13:33:50.091Z,46.40
2023-05-29T13:36:17.657Z,46.20
2023-05-29T13:38:45.582Z,48.30
2023-05-29T13:41:13.215Z,44.00
2023-05-29T13:43:44.988Z,44.70
2023-05-29T13:46:13.995Z,47.00
2023-05-29T13:48:41.599Z,44.70
2023-05-29T13:51:09.279Z,44.30
2023-05-29T13:53:36.851Z,44.30
2023-05-29T13:56:04.452Z,45.00
2023-05-29T13:58:32.037Z,46.10
2023-05-29T14:00:59.642Z,46.10
2023-05-29T14:03:30.428Z,44.70
2023-05-29T14:05:58.617Z,43.80
2023-05-29T14:08:26.539Z,44.90
2023-05-29T14:10:54.027Z,46.90
2023-05-29T14:13:21.565Z,48.30
2023-05-29T14:15:50.660Z,50.70
2023-05-29T14:18:18.239Z,50.70
2023-05-29T14:20:49.562Z,50.60
2023-05-29T14:23:19.362Z,51.20
2023-05-29T14:25:46.937Z,49.00
2023-05-29T14:28:14.648Z,48.40
2023-05-29T14:30:42.184Z,47.80
2023-05-29T14:33:09.850Z,48.90
2023-05-29T14:35:37.463Z,46.20
2023-05-29T14:38:05.045Z,48.10
2023-05-29T14:40:35.244Z,51.00
2023-05-29T14:43:03.069Z,51.30
2023-05-29T14:45:31.538Z,52.30
2023-05-29T14:47:59.089Z,54.20
2023-05-29T14:50:26.706Z,55.30
2023-05-29T14:52:54.290Z,53.60
2023-05-29T14:55:22.003Z,53.40
2023-05-29T14:57:49.541Z,49.30
2023-05-29T15:00:19.734Z,48.00
2023-05-29T15:02:48.014Z,45.70
2023-05-29T15:05:15.687Z,45.90
2023-05-29T15:07:43.243Z,45.90
2023-05-29T15:10:11.569Z,45.80
2023-05-29T15:12:39.107Z,45.70
2023-05-29T15:15:07.534Z,46.00
2023-05-29T15:17:35.133Z,46.80
2023-05-29T15:20:03.536Z,48.60
2023-05-29T15:22:31.160Z,49.60
2023-05-29T15:24:58.753Z,51.30
2023-05-29T15:27:29.488Z,53.50
2023-05-29T15:30:14.264Z,54.20
2023-05-29T15:32:43.504Z,53.70
2023-05-29T15:35:12.520Z,53.10
2023-05-29T15:37:41.421Z,52.80
2023-05-29T15:40:12.929Z,53.00
2023-05-29T15:42:41.740Z,52.50
2023-05-29T15:45:10.925Z,52.60
2023-05-29T15:47:38.451Z,54.10
2023-05-29T15:50:06.601Z,54.30
2023-05-29T15:52:46.440Z,55.00
2023-05-29T15:55:22.178Z,53.30
2023-05-29T15:57:49.821Z,53.40
2023-05-29T16:00:18.319Z,53.80
2023-05-29T16:02:45.977Z,53.90
2023-05-29T16:05:13.977Z,55.60
2023-05-29T16:07:42.456Z,55.60
2023-05-29T16:10:11.833Z,56.60
2023-05-29T16:12:39.432Z,57.50
2023-05-29T16:15:07.718Z,57.50
2023-05-29T16:17:35.692Z,58.80
2023-05-29T16:20:04.021Z,58.50
2023-05-29T16:22:41.800Z,58.30
2023-05-29T16:25:11.479Z,57.80
2023-05-29T16:27:39.902Z,57.60
2023-05-29T16:30:08.685Z,56.00
2023-05-29T16:32:36.938Z,55.20
2023-05-29T16:35:05.744Z,55.10
2023-05-29T16:37:33.481Z,55.50
2023-05-29T16:40:01.468Z,55.30
2023-05-29T16:42:29.088Z,56.80
2023-05-29T16:44:56.712Z,58.30
2023-05-29T16:47:24.349Z,58.60
2023-05-29T16:49:52.393Z,59.50
2023-05-29T16:52:22.864Z,60.20
2023-05-29T16:54:50.858Z,59.30
2023-05-29T16:57:21.402Z,58.90
2023-05-29T16:59:48.962Z,58.80
2023-05-29T17:02:16.617Z,59.50
2023-05-29T17:04:44.696Z,60.30
2023-05-29T17:07:12.394Z,61.20
2023-05-29T17:09:40.096Z,61.90
2023-05-29T17:12:08.411Z,61.90
2023-05-29T17:14:35.929Z,61.60
2023-05-29T17:17:04.011Z,62.10
2023-05-29T17:19:31.802Z,62.10
2023-05-29T17:22:00.863Z,61.00
2023-05-29T17:24:28.479Z,61.90
2023-05-29T17:26:56.006Z,62.00
2023-05-29T17:29:23.647Z,61.70
2023-05-29T17:31:51.165Z,62.60
2023-05-29T17:34:18.863Z,63.10
2023-05-29T17:36:46.522Z,63.50
2023-05-29T17:39:14.539Z,63.50
2023-05-29T17:41:42.034Z,64.40
2023-05-29T17:44:09.658Z,66.50
2023-05-29T17:46:37.291Z,67.50
2023-05-29T17:49:04.928Z,69.60
2023-05-29T17:51:32.499Z,70.10
2023-05-29T17:54:00.038Z,70.60
2023-05-29T17:56:27.747Z,71.20
2023-05-29T17:58:55.252Z,72.10
2023-05-29T18:01:22.940Z,72.50
2023-05-29T18:03:50.553Z,74.10
2023-05-29T18:06:18.377Z,75.20
2023-05-29T18:08:45.926Z,77.40
2023-05-29T18:11:13.672Z,78.50
2023-05-29T18:13:58.038Z,80.80
2023-05-29T18:16:49.771Z,82.70
2023-05-29T18:19:31.280Z,85.20
2023-05-29T18:22:25.144Z,86.80
2023-05-29T18:25:10.512Z,88.80
2023-05-29T18:27:59.619Z,90.00
2023-05-29T18:30:27.508Z,90.30
2023-05-29T18:32:55.143Z,90.80
2023-05-29T18:35:22.645Z,91.00
2023-05-29T18:37:51.275Z,91.80
2023-05-29T18:40:20.203Z,92.10
2023-05-29T18:42:47.906Z,92.50
2023-05-29T18:45:15.731Z,92.60
2023-05-29T18:47:43.392Z,92.80
2023-05-29T18:50:12.724Z,93.00
2023-05-29T18:52:41.385Z,93.40
2023-05-29T18:55:10.071Z,93.70
2023-05-29T18:57:38.566Z,94.60
2023-05-29T19:00:07.316Z,95.20
2023-05-29T19:02:39.378Z,95.90
2023-05-29T19:05:07.918Z,96.30
2023-05-29T19:07:36.535Z,96.90
2023-05-29T19:10:05.084Z,96.90
2023-05-29T19:12:32.737Z,97.80
2023-05-29T19:15:00.310Z,98.30
2023-05-29T19:17:28.154Z,98.40
2023-05-29T19:19:56.640Z,98.70
2023-05-29T19:22:24.214Z,98.70
2023-05-29T19:24:51.796Z,99.30
2023-05-29T19:27:20.133Z,99.50
2023-05-29T19:29:47.704Z,99.90
2023-05-29T19:32:20.017Z,99.90
2023-05-29T19:34:48.624Z,99.90
2023-05-29T19:37:16.171Z,99.90
2023-05-29T19:39:43.731Z,99.90
2023-05-29T19:42:11.257Z,99.90
2023-05-29T19:44:38.896Z,99.90
2023-05-29T19:47:06.819Z,99.90
2023-05-29T19:49:34.391Z,99.90
2023-05-29T19:52:03.803Z,99.90
2023-05-29T19:54:31.822Z,99.90
2023-05-29T19:56:59.324Z,99.90
2023-05-29T19:59:26.916Z,99.90
2023-05-29T20:01:54.398Z,99.90
2023-05-29T20:04:21.980Z,99.90
2023-05-29T20:06:49.556Z,99.90
2023-05-29T20:09:17.600Z,99.90
2023-05-29T20:11:45.172Z,99.90
2023-05-29T20:14:12.701Z,99.90
2023-05-29T20:16:40.352Z,99.90
2023-05-29T20:19:08.498Z,99.90
2023-05-29T20:21:36.230Z,99.90
2023-05-29T20:24:04.619Z,99.90
2023-05-29T20:26:34.896Z,99.90
2023-05-29T20:29:02.545Z,99.90
2023-05-29T20:31:30.169Z,99.90
2023-05-29T20:33:57.743Z,99.90
2023-05-29T20:36:27.181Z,99.90
2023-05-29T20:38:55.544Z,99.90
2023-05-29T20:41:24.113Z,99.90
2023-05-29T20:43:52.310Z,99.90
2023-05-29T20:46:20.823Z,99.90
2023-05-29T20:48:48.400Z,99.90
2023-05-29T20:51:17.058Z,99.90
2023-05-29T20:53:44.660Z,99.90
2023-05-29T20:56:12.482Z,99.90
2023-05-29T20:58:40.078Z,99.90
2023-05-29T21:01:08.285Z,99.90
2023-05-29T21:03:37.057Z,99.90
2023-05-29T21:06:08.014Z,99.90
2023-05-29T21:08:36.199Z,99.90
2023-05-29T21:11:05.376Z,99.90
2023-05-29T21:13:33.354Z,99.90
2023-05-29T21:16:01.150Z,99.90
2023-05-29T21:18:28.804Z,99.90
2023-05-29T21:20:56.618Z,99.90
2023-05-29T21:23:24.215Z,99.90
2023-05-29T21:25:53.348Z,99.90
2023-05-29T21:28:20.947Z,99.90
2023-05-29T21:30:48.439Z,99.90
2023-05-29T21:33:16.020Z,99.90
2023-05-29T21:35:45.414Z,99.90
2023-05-29T21:38:13.026Z,99.90
2023-05-29T21:40:40.604Z,99.90
2023-05-29T21:43:08.290Z,99.90
2023-05-29T21:45:36.015Z,99.90
2023-05-29T21:48:03.620Z,99.90
2023-05-29T21:50:31.568Z,99.90
2023-05-29T21:52:59.865Z,99.90
2023-05-29T21:55:28.128Z,99.90
2023-05-29T21:57:56.184Z,99.90
2023-05-29T22:00:27.223Z,99.90
2023-05-29T22:02:55.069Z,99.90
2023-05-29T22:05:22.905Z,99.90
2023-05-29T22:07:53.133Z,99.90
2023-05-29T22:10:21.302Z,99.90
2023-05-29T22:12:53.162Z,99.90
2023-05-29T22:15:21.376Z,99.90
2023-05-29T22:17:49.022Z,99.90
2023-05-29T22:20:17.396Z,99.90
2023-05-29T22:22:45.189Z,99.90
2023-05-29T22:25:16.706Z,99.90
2023-05-29T22:27:44.495Z,99.90
2023-05-29T22:30:12.698Z,99.90
2023-05-29T22:32:42.665Z,99.90
2023-05-29T22:35:13.649Z,99.90
2023-05-29T22:37:41.827Z,99.90
2023-05-29T22:40:15.930Z,99.90
2023-05-29T22:42:43.675Z,99.90
2023-05-29T22:45:12.242Z,99.90
2023-05-29T22:47:39.940Z,99.90
2023-05-29T22:50:08.247Z,99.90
2023-05-29T22:52:35.860Z,99.90
2023-05-29T22:55:04.220Z,99.90
2023-05-29T22:57:33.521Z,99.90
2023-05-29T23:00:01.332Z,99.90
2023-05-29T23:02:29.436Z,99.90
2023-05-29T23:04:57.230Z,99.90
2023-05-29T23:07:24.866Z,99.90
2023-05-29T23:09:52.755Z,99.90
2023-05-29T23:12:21.305Z,99.90
2023-05-29T23:14:48.924Z,99.90
2023-05-29T23:17:16.636Z,99.90
2023-05-29T23:19:44.148Z,99.90
2023-05-29T23:22:12.379Z,99.90
2023-05-29T23:24:39.821Z,99.90
2023-05-29T23:27:08.508Z,99.90
2023-05-29T23:29:36.083Z,99.90
2023-05-29T23:32:03.717Z,99.90
2023-05-29T23:34:31.915Z,99.90
2023-05-29T23:36:59.589Z,99.90
2023-05-29T23:39:27.066Z,99.90
2023-05-29T23:41:54.575Z,99.90
2023-05-29T23:44:22.383Z,99.90
2023-05-29T23:46:49.876Z,99.90
2023-05-29T23:49:17.442Z,99.90
2023-05-29T23:51:44.981Z,99.90
2023-05-29T23:54:12.609Z,99.90
2023-05-29T23:56:40.142Z,99.90
2023-05-29T23:59:08.067Z,99.90
